WARM SPRINGS (USACE) (WRS)

Elevation: 440' · RUSSIAN R basin · Operator: US Army Corps of Engineers

Provisional data, subject to change.
Query executed Friday at 20:17:03   clock

Select a sensor type for a plot of data.
Note: Reservoir Flows are daily averages.

Earlier

Date RES ELE    STORAGE    RES CHG    TOC STO    ABV TOC    OUTFLOW    INFLOW    PPT INC    TEMP MN    TEMP MX    EVP PAN   
 FEET   AF   AF   AF   AF   CFS   CFS   INCHES   DEG F   DEG F   INCHES  
09/25/2014 408.12 148420 -190 245000 -96580 111 22 0.15 13 24 0.09
09/26/2014 408.00 148200 -220 245000 -96800 111 4 0.36 11 26 0.10
09/27/2014 407.90 148010 -190 245000 -96990 111 24 0.03 13 29 0.11
09/28/2014 407.77 147770 -240 245000 -97230 111 -5 0.00 10 26 0.09
09/29/2014 407.66 147560 -210 245000 -97440 108 10 0.00 10 26 0.09
09/30/2014 407.57 147390 -170 245000 -97610 103 25 0.01 10 31 0.10
10/01/2014 407.45 147170 -220 245000 -97830 103 -2 0.00 12 34 0.12
10/02/2014 407.32 146920 -250 245000 -98080 108 -6 0.00 9 35 0.12
10/03/2014 407.20 146700 -220 245000 -98300 112 8 0.01 10 36 0.12
10/04/2014 407.08 146470 -230 245000 -98530 113 9 0.00 11 37 0.13
10/05/2014 406.96 146250 -220 245000 -98750 113 9 0.01 12 37 0.12
10/06/2014 406.84 146030 -220 245000 -98970 113 7 0.00 9 36 0.10
10/07/2014 406.72 145800 -230 245000 -99200 113 8 0.00 6 34 0.10
10/08/2014 406.61 145600 -200 245000 -99400 113 18 0.00 8 36 0.11
10/09/2014 406.46 145320 -280 245000 -99680 118 -15 0.00 9 33 0.09
10/10/2014 406.33 145080 -240 245000 -99920 124 9 0.00 10 29 0.09
10/11/2014 406.20 144840 -240 245000 -100160 124 9 0.00 8 32 0.10
10/12/2014 406.06 144579 -260 245000 -100420 123 1 0.00 16 36 0.12
10/13/2014 405.91 144301 -280 245000 -100700 124 -8 0.00 9 34 0.11
10/14/2014 405.79 144080 -220 245000 -100920 124 14 0.00 14 17 0.02
10/15/2014 405.68 143877 -200 245000 -24356120 123 26 0.26 12 22 0.07
10/16/2014 405.56 143655 -222 245000 -101345 117 10 0.01 8 23 0.07
10/17/2014 405.44 143434 -221 245000 -101566 112 4 0.00 8 20 0.05
10/18/2014 405.34 143250 -184 245000 -101750 112 24 0.00 13 26 0.07
10/19/2014 405.22 143030 -220 245000 -101970 112 7 0.00 11 26 0.08
10/20/2014 405.12 142846 -184 245000 -102154 104 16 0.06 9 22 0.05
10/21/2014 405.00 142626 -220 245000 -102374 97 -9 0.00 7 23 0.07
10/22/2014 404.89 142424 -202 245000 -102576 86 -11 0.00 8 25 0.07
10/23/2014 404.81 142278 -146 245000 -102722 77 6 0.00 13 21 0.04
10/24/2014 -- -- -- -- -- -- -- -- -- -- --

Later | Latest

Warning! This data is preliminary and subject to revision.

Show WRS Map | Plot WRS Data | 1 Month WRS Data | Real-Time WRS Data | WRS Info